Time;durP1;ratioP1;P1;durP2;ratioP2;P2;SDS_P1;SDS_P2;PMS_P1;PMS_P2;Temp;Humidity;BMP_temperature;BMP_pressure;BME280_temperature;BME280_humidity;BME280_pressure;Samples;Min_cycle;Max_cycle;Signal;HPM_P1;HPM_P2
2022/04/29 00:00:38;;;;;;;3.75;3.10;;;;;;;20.43;47.38;101267.95;1670507;84;21136;-77
2022/04/29 00:03:07;;;;;;;4.00;3.15;;;;;;;20.43;47.39;101261.05;1669853;84;21048;-77
2022/04/29 00:05:35;;;;;;;3.33;2.77;;;;;;;20.42;47.37;101262.16;1670207;84;21087;-77
2022/04/29 00:08:04;;;;;;;4.33;2.90;;;;;;;20.41;47.41;101259.14;1670337;84;21517;-76
2022/04/29 00:10:30;;;;;;;4.35;3.33;;;;;;;20.43;47.42;101261.60;1669953;84;21601;-77
2022/04/29 00:12:57;;;;;;;3.90;2.80;;;;;;;20.42;47.43;101261.34;1649439;85;21088;-77
2022/04/29 00:15:23;;;;;;;4.47;3.00;;;;;;;20.42;47.45;101265.48;1670172;84;21048;-77
2022/04/29 00:17:50;;;;;;;4.37;3.37;;;;;;;20.42;47.45;101261.34;1670122;84;21012;-76
2022/04/29 00:20:16;;;;;;;3.35;2.72;;;;;;;20.41;47.49;101259.14;1669853;84;21550;-76
2022/04/29 00:22:44;;;;;;;3.40;3.08;;;;;;;20.42;47.49;101265.48;1670258;84;21041;-76
2022/04/29 00:25:10;;;;;;;4.95;3.20;;;;;;;20.41;47.50;101257.75;1670194;84;21473;-77
2022/04/29 00:27:37;;;;;;;4.30;3.12;;;;;;;20.41;47.51;101263.87;1669998;84;21001;-77
2022/04/29 00:30:05;;;;;;;3.65;3.05;;;;;;;20.41;47.51;101256.96;1670201;84;21588;-76
2022/04/29 00:32:31;;;;;;;3.72;3.30;;;;;;;20.41;47.51;101247.28;1667237;84;21007;-77
2022/04/29 00:34:57;;;;;;;3.70;3.37;;;;;;;20.41;47.54;101252.81;1666921;84;21625;-77
2022/04/29 00:37:23;;;;;;;4.62;3.40;;;;;;;20.40;47.55;101258.08;1658552;85;21057;-76
2022/04/29 00:39:50;;;;;;;4.35;3.33;;;;;;;20.40;47.54;101258.91;1658579;86;21104;-76
2022/04/29 00:42:21;;;;;;;3.87;3.25;;;;;;;20.39;47.55;101251.73;1658604;85;21525;-76
2022/04/29 00:44:47;;;;;;;4.15;3.27;;;;;;;20.39;47.56;101251.73;1658921;85;21329;-77
2022/04/29 00:47:17;;;;;;;4.33;3.25;;;;;;;20.40;47.54;101254.76;1658475;85;21096;-76
2022/04/29 00:49:43;;;;;;;4.10;3.10;;;;;;;20.40;47.57;101254.76;1658654;85;21026;-77
2022/04/29 00:52:16;;;;;;;5.08;3.42;;;;;;;20.39;47.57;101253.11;1658666;85;21057;-77
2022/04/29 00:54:45;;;;;;;4.45;3.55;;;;;;;20.39;47.58;101257.81;1666102;84;21018;-77
2022/04/29 00:57:23;;;;;;;4.83;3.50;;;;;;;20.39;47.58;101246.20;1658971;84;21558;-76
2022/04/29 01:00:03;;;;;;;4.15;3.35;;;;;;;20.38;47.58;101245.94;1656258;85;21080;-75
2022/04/29 01:02:29;;;;;;;4.70;3.30;;;;;;;20.39;47.59;101253.67;1648179;85;21105;-77
2022/04/29 01:05:06;;;;;;;5.03;3.40;;;;;;;20.37;47.59;101255.91;1658440;85;21013;-77
2022/04/29 01:07:36;;;;;;;4.05;3.58;;;;;;;20.37;47.59;101253.14;1632151;86;21633;-76
2022/04/29 01:10:04;;;;;;;3.90;3.47;;;;;;;20.37;47.60;101254.52;1643738;85;26960;-77
2022/04/29 01:12:35;;;;;;;4.58;3.45;;;;;;;20.37;47.61;101251.76;1658937;85;21117;-77
2022/04/29 01:15:08;;;;;;;3.30;3.00;;;;;;;20.37;47.61;101250.37;1659313;85;21025;-76
2022/04/29 01:17:38;;;;;;;4.87;3.47;;;;;;;20.37;47.62;101254.52;1658722;85;21068;-77
2022/04/29 01:20:08;;;;;;;4.87;2.72;;;;;;;20.36;47.64;101250.97;1659272;85;21112;-76
2022/04/29 01:22:34;;;;;;;4.83;3.80;;;;;;;20.36;47.65;101244.06;1658742;85;21151;-76
2022/04/29 01:25:00;;;;;;;4.42;3.58;;;;;;;20.36;47.65;101250.14;1647615;86;21594;-77
2022/04/29 01:27:27;;;;;;;3.98;3.50;;;;;;;20.35;47.65;101256.23;1659013;84;21041;-76
2022/04/29 01:30:09;;;;;;;4.58;3.60;;;;;;;20.35;47.66;101255.41;1658939;85;21018;-76
2022/04/29 01:32:36;;;;;;;4.33;3.30;;;;;;;20.35;47.67;101254.02;1658607;85;21542;-76
2022/04/29 01:35:03;;;;;;;3.60;3.30;;;;;;;20.35;47.67;101257.61;1659009;85;21163;-76
2022/04/29 01:37:30;;;;;;;4.08;3.40;;;;;;;20.34;47.67;101255.96;1659036;85;21014;-76
2022/04/29 01:39:57;;;;;;;5.00;3.40;;;;;;;20.35;47.66;101252.64;1658710;85;21041;-77
2022/04/29 01:42:23;;;;;;;4.83;3.62;;;;;;;20.35;47.69;101254.02;1659110;85;21010;-76
2022/04/29 01:44:49;;;;;;;4.75;3.60;;;;;;;20.35;47.67;101254.84;1658655;85;21303;-77
2022/04/29 01:47:16;;;;;;;3.87;3.45;;;;;;;20.35;47.69;101260.93;1658981;85;21183;-76
2022/04/29 01:49:42;;;;;;;4.85;3.60;;;;;;;20.35;47.69;101256.78;1658897;85;21017;-76
2022/04/29 01:52:08;;;;;;;4.05;3.37;;;;;;;20.34;47.69;101251.81;1659114;85;21077;-76
2022/04/29 01:54:38;;;;;;;5.28;3.72;;;;;;;20.34;47.70;101241.33;1658856;85;21130;-76
2022/04/29 01:57:06;;;;;;;4.37;3.17;;;;;;;20.35;47.72;101248.50;1659119;86;21104;-76
2022/04/29 01:59:33;;;;;;;4.00;3.60;;;;;;;20.34;47.69;101245.47;1659131;85;21117;-76
2022/04/29 02:01:59;;;;;;;3.85;3.40;;;;;;;20.33;47.69;101243.82;1658812;85;20970;-76
2022/04/29 02:04:25;;;;;;;4.70;4.17;;;;;;;20.33;47.71;101242.44;1658912;85;21108;-76
2022/04/29 02:06:52;;;;;;;3.80;3.10;;;;;;;20.34;47.70;101245.47;1656137;85;21010;-77
2022/04/29 02:09:18;;;;;;;5.10;3.87;;;;;;;20.33;47.70;101243.82;1658960;85;21013;-76
2022/04/29 02:12:04;;;;;;;4.72;3.72;;;;;;;20.33;47.71;101242.44;1659014;85;21606;-76
2022/04/29 02:14:13;;;;;;;4.35;3.87;;;;;;;20.33;47.70;101242.44;1656392;85;21053;-76
2022/04/29 02:16:39;;;;;;;4.85;3.77;;;;;;;20.32;47.69;101240.27;1658804;85;21061;-76
2022/04/29 02:19:06;;;;;;;4.70;3.92;;;;;;;20.33;47.71;101246.59;1640912;85;21072;-76
2022/04/29 02:21:38;;;;;;;4.75;3.67;;;;;;;20.33;47.69;101245.20;1658856;85;21065;-75
2022/04/29 02:24:05;;;;;;;5.95;3.90;;;;;;;20.32;47.69;101243.03;1622609;87;21189;-76
2022/04/29 02:26:32;;;;;;;5.08;4.28;;;;;;;20.32;47.69;101242.20;1632165;86;21581;-76
2022/04/29 02:28:59;;;;;;;4.22;3.75;;;;;;;20.32;47.67;101244.97;1632311;86;21024;-76
2022/04/29 02:31:25;;;;;;;4.83;4.10;;;;;;;20.31;47.68;101244.14;1632034;86;21088;-76
2022/04/29 02:33:52;;;;;;;5.05;3.70;;;;;;;20.31;47.68;101246.91;1639045;85;21021;-76
2022/04/29 02:36:18;;;;;;;4.42;3.55;;;;;;;20.31;47.68;101248.29;1658846;85;21206;-76
2022/04/29 02:38:44;;;;;;;4.12;3.67;;;;;;;20.32;47.68;101246.35;1658747;85;21045;-76
2022/04/29 02:41:10;;;;;;;4.78;3.65;;;;;;;20.31;47.68;101246.09;1658841;85;21030;-76
2022/04/29 02:43:37;;;;;;;4.92;4.30;;;;;;;20.31;47.65;101252.44;1658818;85;21183;-76
2022/04/29 02:46:04;;;;;;;4.33;3.90;;;;;;;20.30;47.65;101256.31;1658826;85;21021;-77
2022/04/29 02:48:31;;;;;;;4.87;4.10;;;;;;;20.31;47.64;101265.43;1658805;85;22095;-75
2022/04/29 02:50:57;;;;;;;5.53;3.92;;;;;;;20.30;47.64;101265.98;1641746;86;21092;-75
2022/04/29 02:53:23;;;;;;;4.58;3.87;;;;;;;20.30;47.65;101268.75;1658873;85;21630;-76
2022/04/29 02:55:50;;;;;;;4.42;3.67;;;;;;;20.31;47.64;101266.81;1658634;85;21025;-76
2022/04/29 02:58:16;;;;;;;4.75;3.90;;;;;;;20.31;47.64;101273.72;1659017;85;21441;-77
2022/04/29 03:00:42;;;;;;;4.60;3.67;;;;;;;20.30;47.63;101278.42;1651821;85;21077;-76
2022/04/29 03:03:09;;;;;;;5.37;4.10;;;;;;;20.30;47.63;101276.22;1659000;85;21557;-76
2022/04/29 03:05:35;;;;;;;4.62;4.05;;;;;;;20.30;47.61;101280.36;1658661;85;21168;-77
2022/04/29 03:08:01;;;;;;;5.42;4.05;;;;;;;20.30;47.61;101284.51;1658905;85;21124;-75
2022/04/29 03:10:28;;;;;;;4.55;3.77;;;;;;;20.29;47.59;101283.69;1658888;85;21398;-76
2022/04/29 03:12:54;;;;;;;3.70;3.30;;;;;;;20.30;47.59;101288.65;1659037;85;21249;-77
2022/04/29 03:15:20;;;;;;;4.62;3.87;;;;;;;20.29;47.58;101296.12;1641421;86;21475;-76
2022/04/29 03:20:39;;;;;;;4.60;3.67;;;;;;;20.29;47.57;101299.41;1658554;85;21526;-77
2022/04/29 03:23:06;;;;;;;5.05;3.80;;;;;;;20.28;47.54;101301.94;1658653;85;21041;-77
2022/04/29 03:25:32;;;;;;;3.85;3.37;;;;;;;20.29;47.53;101307.70;1659045;85;21548;-77
2022/04/29 03:27:58;;;;;;;5.05;3.95;;;;;;;20.29;47.52;101311.84;1658495;85;21053;-76
2022/04/29 03:30:25;;;;;;;6.28;4.25;;;;;;;20.28;47.52;101317.13;1653313;85;21037;-75
2022/04/29 03:32:53;;;;;;;5.25;3.95;;;;;;;20.28;47.54;101311.05;1659117;85;21544;-76
2022/04/29 03:35:19;;;;;;;6.75;4.28;;;;;;;20.27;47.52;101314.92;1658990;83;21049;-76
2022/04/29 03:37:53;;;;;;;4.72;4.05;;;;;;;20.28;47.54;101319.90;1674284;84;21185;-77
2022/04/29 03:40:22;;;;;;;4.95;3.75;;;;;;;20.28;47.53;101325.42;1674235;84;21103;-77
2022/04/29 03:42:50;;;;;;;4.20;3.80;;;;;;;20.28;47.50;101330.95;1654740;84;21121;-76
2022/04/29 03:45:18;;;;;;;5.33;3.85;;;;;;;20.26;47.51;101331.23;1675285;84;21091;-76
2022/04/29 03:47:44;;;;;;;4.67;4.20;;;;;;;20.27;47.50;101334.27;1674130;84;21112;-76
2022/04/29 03:50:10;;;;;;;4.60;3.75;;;;;;;20.27;47.49;101332.89;1674413;85;22047;-75
2022/04/29 03:52:47;;;;;;;4.90;4.42;;;;;;;20.26;47.47;101345.05;1674432;84;21315;-76
2022/04/29 03:55:14;;;;;;;5.37;4.87;;;;;;;20.26;47.47;101336.77;1674220;84;21001;-75
2022/04/29 03:57:41;;;;;;;5.00;4.20;;;;;;;20.26;47.47;101343.67;1674354;84;21099;-75
2022/04/29 04:00:13;;;;;;;4.40;4.00;;;;;;;20.26;47.48;101337.33;1674296;84;21039;-76
2022/04/29 04:02:40;;;;;;;5.17;3.70;;;;;;;20.26;47.44;101340.09;1654560;85;22585;-75
2022/04/29 04:05:08;;;;;;;5.00;3.95;;;;;;;20.26;47.46;101350.58;1673984;84;21036;-76
2022/04/29 04:07:34;;;;;;;4.75;3.83;;;;;;;20.25;47.45;101343.97;1668600;84;21060;-76
2022/04/29 04:10:01;;;;;;;4.62;4.22;;;;;;;20.26;47.43;101349.76;1673935;84;21561;-76
2022/04/29 04:12:43;;;;;;;5.42;4.55;;;;;;;20.26;47.44;101349.76;1674298;84;21052;-76
2022/04/29 04:15:11;;;;;;;5.55;4.33;;;;;;;20.26;47.42;101351.97;1657598;84;21210;-77
2022/04/29 04:17:37;;;;;;;4.90;4.40;;;;;;;20.25;47.40;101355.84;1668493;84;21064;-77
2022/04/29 04:20:11;;;;;;;5.50;4.15;;;;;;;20.26;47.40;101352.52;1674213;84;21041;-76
2022/04/29 04:22:37;;;;;;;6.03;4.37;;;;;;;20.25;47.39;101357.22;1674080;84;21099;-76
2022/04/29 04:25:05;;;;;;;4.58;4.00;;;;;;;20.25;47.39;101358.61;1674307;84;21077;-75
2022/04/29 04:27:38;;;;;;;4.70;4.08;;;;;;;20.25;47.39;101360.55;1674139;84;21641;-77
2022/04/29 04:30:05;;;;;;;5.08;3.83;;;;;;;20.25;47.38;101369.66;1674027;84;21047;-76
2022/04/29 04:32:36;;;;;;;5.65;4.20;;;;;;;20.25;47.37;101369.66;1674362;84;21403;-76
2022/04/29 04:35:03;;;;;;;5.15;4.10;;;;;;;20.25;47.39;101371.59;1672847;84;21566;-77
2022/04/29 04:37:31;;;;;;;5.35;4.00;;;;;;;20.24;47.38;101372.16;1673116;83;21144;-76
2022/04/29 04:39:58;;;;;;;5.85;3.83;;;;;;;20.25;47.36;101376.56;1673465;84;21493;-76
2022/04/29 04:42:24;;;;;;;4.78;3.98;;;;;;;20.25;47.37;101372.98;1673634;84;21067;-77
2022/04/29 04:44:51;;;;;;;5.15;4.65;;;;;;;20.24;47.34;101381.03;1673479;84;21158;-76
2022/04/29 04:47:17;;;;;;;4.35;3.83;;;;;;;20.25;47.36;101384.86;1672572;85;21060;-76
2022/04/29 04:49:44;;;;;;;4.25;3.67;;;;;;;20.26;47.37;101385.67;1672648;84;21625;-76
2022/04/29 04:52:10;;;;;;;4.75;3.50;;;;;;;20.27;47.37;101386.77;1672949;84;21365;-77
2022/04/29 04:54:37;;;;;;;4.50;3.70;;;;;;;20.26;47.36;101382.91;1671929;83;21577;-78
2022/04/29 04:57:04;;;;;;;4.72;4.03;;;;;;;20.26;47.34;101385.13;1673652;83;21022;-77
2022/04/29 04:59:30;;;;;;;4.95;3.80;;;;;;;20.27;47.33;101387.33;1677034;83;21514;-76
2022/04/29 05:01:57;;;;;;;3.83;3.42;;;;;;;20.27;47.36;101385.95;1687692;84;21068;-76
2022/04/29 05:04:23;;;;;;;4.78;3.98;;;;;;;20.28;47.37;101387.59;1675012;83;21328;-76
2022/04/29 05:06:49;;;;;;;3.62;3.12;;;;;;;20.29;47.35;101390.06;1675478;84;21509;-77
2022/04/29 05:09:16;;;;;;;4.33;3.12;;;;;;;20.33;47.32;101394.42;1680240;83;21096;-75
2022/04/29 05:11:42;;;;;;;4.90;3.40;;;;;;;20.37;47.29;101396.29;1673791;85;21061;-76
2022/04/29 05:14:09;;;;;;;3.90;3.00;;;;;;;20.42;47.24;101392.62;1671048;84;21497;-76
2022/04/29 05:16:35;;;;;;;3.35;2.90;;;;;;;20.46;47.18;101397.24;1672285;84;21883;-75
2022/04/29 05:19:01;;;;;;;5.35;2.85;;;;;;;20.54;47.11;101394.93;1670620;85;21034;-76
2022/04/29 05:21:28;;;;;;;3.52;2.95;;;;;;;20.61;47.03;101398.11;1657749;85;21065;-76
2022/04/29 05:23:54;;;;;;;4.10;2.65;;;;;;;20.69;46.93;101395.47;1647096;85;21133;-76
2022/04/29 05:26:21;;;;;;;3.60;3.02;;;;;;;20.76;46.83;101401.41;1662306;84;21097;-76
2022/04/29 05:28:47;;;;;;;3.62;2.92;;;;;;;20.84;46.71;101404.03;1671446;84;22002;-76
2022/04/29 05:31:14;;;;;;;4.10;3.00;;;;;;;20.92;46.61;101404.71;1674580;84;21033;-76
2022/04/29 05:33:40;;;;;;;3.70;3.20;;;;;;;21.01;46.49;101409.80;1676814;84;21018;-77
2022/04/29 05:36:07;;;;;;;3.80;3.02;;;;;;;21.08;46.38;101413.56;1677933;84;21602;-76
2022/04/29 05:44:07;;;;;;;3.75;2.85;;;;;;;21.27;46.11;101412.36;1692022;84;20954;-76
2022/04/29 05:46:35;;;;;;;3.30;2.90;;;;;;;21.33;45.98;101418.62;1678579;84;21975;-79
2022/04/29 05:49:02;;;;;;;3.08;2.67;;;;;;;21.37;45.91;101422.41;1605795;86;21082;-78
2022/04/29 05:51:28;;;;;;;3.15;2.70;;;;;;;21.42;45.84;101420.94;1671973;84;21064;-77
2022/04/29 05:53:54;;;;;;;3.02;2.30;;;;;;;21.47;45.76;101425.55;1666588;84;21415;-78
2022/04/29 05:56:20;;;;;;;3.95;2.52;;;;;;;21.50;45.70;101418.83;1668163;84;22108;-78
2022/04/29 05:58:47;;;;;;;3.45;2.58;;;;;;;21.53;45.65;101418.75;1665163;84;21149;-78
2022/04/29 06:01:13;;;;;;;3.15;2.35;;;;;;;21.57;45.59;101428.91;1664455;84;21074;-78
2022/04/29 06:03:39;;;;;;;3.90;2.72;;;;;;;21.60;45.51;101426.89;1668271;84;21613;-78
2022/04/29 06:06:05;;;;;;;5.50;2.92;;;;;;;21.64;45.45;101427.13;1667828;84;21187;-77
2022/04/29 06:08:31;;;;;;;3.70;2.70;;;;;;;21.66;45.43;101427.62;1661861;84;21070;-78
2022/04/29 06:10:58;;;;;;;8.63;2.92;;;;;;;21.69;45.38;101432.53;1666347;84;21061;-79
2022/04/29 06:13:24;;;;;;;3.98;2.80;;;;;;;21.71;45.36;101429.72;1664617;85;21147;-79
2022/04/29 06:15:50;;;;;;;4.92;3.20;;;;;;;21.74;45.31;101436.02;1666760;84;21092;-78
2022/04/29 06:18:16;;;;;;;4.03;3.22;;;;;;;21.78;45.32;101436.20;1665310;84;21252;-79
2022/04/29 06:20:43;;;;;;;5.60;2.87;;;;;;;21.79;45.26;101431.75;1669852;84;21127;-78
2022/04/29 06:23:09;;;;;;;4.67;2.80;;;;;;;21.80;45.23;101434.79;1660137;85;21879;-78
2022/04/29 06:25:35;;;;;;;4.15;2.65;;;;;;;21.84;45.19;101441.91;1661224;84;21114;-78
2022/04/29 06:28:01;;;;;;;4.95;2.75;;;;;;;21.86;45.14;101447.37;1664730;84;22142;-77
2022/04/29 06:30:27;;;;;;;3.17;2.60;;;;;;;21.88;45.10;101453.44;1670882;84;21777;-76
2022/04/29 06:32:54;;;;;;;6.90;2.60;;;;;;;21.91;45.06;101450.60;1626537;85;21024;-77
2022/04/29 06:35:21;;;;;;;8.53;2.90;;;;;;;21.94;45.02;101454.75;1671515;84;21088;-79
2022/04/29 06:37:47;;;;;;;4.58;2.40;;;;;;;21.97;44.98;101456.33;1666478;83;21072;-77
2022/04/29 06:40:14;;;;;;;3.02;2.42;;;;;;;22.00;44.94;101465.39;1668738;84;21835;-79
2022/04/29 06:42:49;;;;;;;5.45;2.77;;;;;;;22.03;44.92;101466.71;1667737;85;21089;-79
2022/04/29 06:45:16;;;;;;;6.90;2.70;;;;;;;22.04;44.89;101466.41;1668172;84;21087;-78
2022/04/29 06:47:42;;;;;;;3.65;2.50;;;;;;;22.06;44.83;101464.16;1662433;84;21598;-79
2022/04/29 07:42:55;;;;;;;14.68;3.75;;;;;;;22.33;44.86;101480.70;1661469;86;39836;-84
2022/04/29 07:45:21;;;;;;;17.40;3.87;;;;;;;22.32;44.82;101478.23;1590341;85;20998;-84
2022/04/29 07:47:47;;;;;;;20.60;4.47;;;;;;;22.32;44.81;101477.66;1662870;83;20956;-83
2022/04/29 07:50:14;;;;;;;19.62;4.42;;;;;;;22.33;44.81;101477.10;1652992;84;21145;-83
2022/04/29 07:52:40;;;;;;;18.07;4.08;;;;;;;22.34;44.79;101475.97;1653529;84;20936;-83
2022/04/29 07:55:07;;;;;;;18.40;3.90;;;;;;;22.36;44.78;101475.67;1660519;84;21090;-83
2022/04/29 07:57:33;;;;;;;22.93;5.22;;;;;;;22.37;44.77;101467.02;1658522;84;21040;-83
2022/04/29 07:59:59;;;;;;;16.75;3.62;;;;;;;22.40;44.73;101475.30;1660297;84;21006;-83
2022/04/29 08:02:25;;;;;;;16.67;4.20;;;;;;;22.39;44.71;101477.25;1675848;83;21395;-83
2022/04/29 08:04:51;;;;;;;14.20;5.72;;;;;;;22.40;44.71;101476.12;1664018;84;21115;-84
2022/04/29 08:07:25;;;;;;;16.02;3.60;;;;;;;22.40;44.72;101480.28;1600164;85;21641;-83
2022/04/29 08:22:52;;;;;;;31.85;5.03;;;;;;;23.16;43.58;101471.43;1848557;75;22702;-77
2022/04/29 08:25:25;;;;;;;33.00;5.17;;;;;;;23.04;43.89;101462.88;1819499;78;20995;-76
2022/04/29 08:27:51;;;;;;;12.05;3.52;;;;;;;22.98;44.11;101472.47;1800361;78;22197;-77
2022/04/29 08:30:18;;;;;;;8.63;2.72;;;;;;;22.86;44.25;101478.61;1807922;78;21039;-77
2022/04/29 08:32:46;;;;;;;12.82;3.37;;;;;;;22.72;44.54;101474.52;1809905;77;22136;-80
2022/04/29 08:35:13;;;;;;;7.62;2.35;;;;;;;22.55;44.87;101481.84;1825537;78;21019;-80
2022/04/29 08:37:40;;;;;;;7.85;2.15;;;;;;;22.36;45.11;101469.56;1773034;79;21659;-80
2022/04/29 08:40:11;;;;;;;6.30;2.20;;;;;;;22.15;45.25;101485.83;1790706;80;22071;-80
2022/04/29 08:42:38;;;;;;;7.95;1.95;;;;;;;21.93;45.32;101483.02;1813636;78;20999;-80
2022/04/29 08:45:10;;;;;;;3.75;2.00;;;;;;;21.72;45.51;101483.16;1814406;78;21003;-80
2022/04/29 08:47:40;;;;;;;6.10;2.00;;;;;;;21.60;45.66;101490.58;1780106;78;20996;-80
2022/04/29 08:50:17;;;;;;;4.08;1.40;;;;;;;21.54;45.74;101483.52;1799669;78;21048;-80
2022/04/29 08:52:44;;;;;;;3.22;1.60;;;;;;;21.48;45.77;101480.59;1792113;78;22215;-80
2022/04/29 09:00:45;;;;;;;2.98;1.40;;;;;;;21.37;45.85;101485.52;1765141;78;20189;-78
2022/04/29 09:03:18;;;;;;;4.00;1.60;;;;;;;21.41;45.79;101491.26;1785525;78;21100;-76
2022/04/29 09:05:45;;;;;;;5.03;2.20;;;;;;;21.46;45.81;101485.63;1788258;78;21987;-77
2022/04/29 09:08:13;;;;;;;5.65;1.72;;;;;;;21.52;45.80;101476.64;1788425;78;21517;-76
2022/04/29 09:10:54;;;;;;;7.50;2.15;;;;;;;21.57;45.82;101482.91;1793799;78;21106;-76
2022/04/29 09:13:35;;;;;;;4.90;2.05;;;;;;;21.61;45.83;101485.87;1804098;78;21556;-76
2022/04/29 09:16:06;;;;;;;6.50;1.90;;;;;;;21.65;45.81;101491.05;1785381;78;21492;-76
2022/04/29 09:18:45;;;;;;;4.35;1.82;;;;;;;21.69;45.81;101489.30;1808597;78;21933;-76
2022/04/29 09:21:17;;;;;;;5.28;2.20;;;;;;;21.71;45.80;101492.03;1799961;78;21039;-76
2022/04/29 09:23:56;;;;;;;4.62;2.02;;;;;;;21.73;45.83;101488.94;1787253;79;21047;-77
2022/04/29 09:26:33;;;;;;;6.42;2.70;;;;;;;21.75;45.83;101490.28;1785215;79;21112;-78
2022/04/29 09:29:16;;;;;;;9.95;2.87;;;;;;;21.76;45.85;101496.09;1717855;82;21050;-76
2022/04/29 09:31:58;;;;;;;4.05;2.30;;;;;;;21.76;45.87;101492.50;1713850;82;21742;-77
2022/04/29 09:34:47;;;;;;;8.28;2.45;;;;;;;21.77;45.89;101488.02;1710681;82;21649;-77
2022/04/29 09:37:16;;;;;;;13.90;3.00;;;;;;;21.77;45.91;101483.03;1710374;82;22282;-77
2022/04/29 09:40:05;;;;;;;5.85;2.77;;;;;;;21.77;45.92;101487.19;1711015;82;21083;-77
2022/04/29 09:42:47;;;;;;;7.60;3.15;;;;;;;21.77;45.92;101484.42;1713903;81;21120;-77
2022/04/29 09:45:22;;;;;;;9.48;2.60;;;;;;;21.76;45.95;101479.47;1707375;82;21256;-78
2022/04/29 09:47:58;;;;;;;8.93;2.37;;;;;;;21.76;45.95;101474.49;1707938;82;21557;-77
2022/04/29 09:50:50;;;;;;;9.33;2.98;;;;;;;21.76;45.96;101475.31;1720650;82;21069;-77
2022/04/29 09:53:23;;;;;;;10.35;3.10;;;;;;;21.75;45.98;101477.82;1710125;82;21024;-78
2022/04/29 09:56:08;;;;;;;6.83;2.92;;;;;;;21.76;45.99;101478.65;1702491;83;21097;-77
2022/04/29 09:58:35;;;;;;;6.65;2.60;;;;;;;21.74;46.00;101473.41;1766139;79;21357;-77
2022/04/29 10:01:05;;;;;;;8.65;2.87;;;;;;;21.73;46.03;101475.91;1750355;79;21049;-77
2022/04/29 10:03:32;;;;;;;10.13;2.80;;;;;;;21.73;46.04;101473.14;1720926;80;21477;-77
2022/04/29 10:06:00;;;;;;;8.45;2.70;;;;;;;21.72;46.04;101472.91;1772708;79;20982;-76
2022/04/29 10:08:27;;;;;;;7.78;3.05;;;;;;;21.73;46.06;101479.24;1605400;79;21692;-77
2022/04/29 10:10:55;;;;;;;12.70;3.10;;;;;;;21.72;46.07;101474.30;1743646;80;21977;-76
2022/04/29 10:13:21;;;;;;;11.83;3.17;;;;;;;21.72;46.08;101470.70;1770866;78;21546;-76
2022/04/29 10:15:48;;;;;;;6.83;2.70;;;;;;;21.70;46.09;101473.77;1794715;78;21056;-77
2022/04/29 10:21:17;;;;;;;7.47;3.02;;;;;;;21.69;46.08;101473.51;1647993;83;21112;-79
2022/04/29 10:23:49;;;;;;;8.03;2.92;;;;;;;21.68;46.09;101477.43;1740618;81;21125;-79
2022/04/29 10:26:14;;;;;;;11.20;3.27;;;;;;;21.67;46.09;101470.24;1796971;78;21093;-79
2022/04/29 10:28:40;;;;;;;9.55;2.75;;;;;;;21.66;46.08;101468.59;1773775;80;21072;-79
2022/04/29 10:31:06;;;;;;;8.53;2.75;;;;;;;21.66;46.09;101467.77;1799570;78;21036;-79
2022/04/29 10:33:34;;;;;;;8.15;3.12;;;;;;;21.66;46.11;101470.54;1798326;78;21062;-81
2022/04/29 10:36:08;;;;;;;10.98;2.90;;;;;;;21.65;46.11;101474.43;1795407;78;22133;-81
2022/04/29 10:38:40;;;;;;;7.37;2.40;;;;;;;21.64;46.13;101464.50;1789986;78;21025;-81
2022/04/29 10:41:30;;;;;;;7.47;2.70;;;;;;;21.63;46.12;101458.14;1789971;78;21032;-80
2022/04/29 10:44:02;;;;;;;6.20;2.77;;;;;;;21.64;46.12;101458.38;1773472;79;21081;-80
2022/04/29 10:46:39;;;;;;;9.58;2.85;;;;;;;21.62;46.10;101462.59;1771101;80;21551;-80
2022/04/29 10:49:27;;;;;;;8.90;2.92;;;;;;;21.61;46.11;101456.80;1785308;78;22152;-80
2022/04/29 10:51:54;;;;;;;8.15;2.95;;;;;;;21.61;46.11;101460.95;1751941;81;21522;-80
2022/04/29 10:54:43;;;;;;;6.62;3.20;;;;;;;21.59;46.09;101458.50;1751908;81;21036;-80
2022/04/29 10:57:14;;;;;;;5.60;2.70;;;;;;;21.59;46.11;101459.89;1769805;79;21512;-80
2022/04/29 11:00:00;;;;;;;11.15;2.90;;;;;;;21.57;46.10;101451.05;1763774;80;21511;-80
2022/04/29 11:02:28;;;;;;;6.53;2.75;;;;;;;21.56;46.10;101452.18;1732989;81;22222;-80
2022/04/29 11:04:56;;;;;;;7.30;2.62;;;;;;;21.56;46.10;101449.97;1759555;80;21033;-80
2022/04/29 11:07:43;;;;;;;7.33;2.75;;;;;;;21.55;46.11;101445.59;1732667;81;21514;-80
2022/04/29 11:10:16;;;;;;;6.33;2.67;;;;;;;21.54;46.12;101448.91;1701030;79;21072;-83
2022/04/29 11:12:45;;;;;;;10.45;3.35;;;;;;;21.53;46.10;101443.11;1750106;79;21095;-79
2022/04/29 11:15:18;;;;;;;7.15;2.83;;;;;;;21.52;46.12;101445.62;1748432;79;21130;-80
2022/04/29 11:17:44;;;;;;;11.30;2.87;;;;;;;21.52;46.12;101444.23;1736240;80;21168;-82
2022/04/29 11:20:23;;;;;;;8.98;2.92;;;;;;;21.52;46.13;101442.85;1736004;80;21022;-85
2022/04/29 11:25:51;;;;;;;7.97;2.58;;;;;;;21.51;46.18;101439.03;1767104;78;21115;-83
2022/04/29 11:28:18;;;;;;;10.70;2.67;;;;;;;21.52;46.17;101433.72;1779036;79;21183;-83
2022/04/29 11:30:45;;;;;;;8.00;2.45;;;;;;;21.50;46.18;101433.22;1782024;79;22942;-83
2022/04/29 11:33:14;;;;;;;8.13;2.72;;;;;;;21.50;46.21;101439.59;1775879;78;21006;-83
2022/04/29 11:35:40;;;;;;;7.95;3.20;;;;;;;21.49;46.25;101437.11;1780719;78;21051;-83
2022/04/29 11:38:09;;;;;;;8.95;3.20;;;;;;;21.48;46.28;101430.75;1750952;80;21620;-83
2022/04/29 11:40:39;;;;;;;7.62;2.62;;;;;;;21.49;46.31;101437.94;1776925;79;21568;-82
2022/04/29 11:43:11;;;;;;;8.90;2.65;;;;;;;21.50;46.35;101429.90;1775116;78;21061;-83
2022/04/29 11:45:38;;;;;;;7.58;3.05;;;;;;;21.50;46.35;101429.07;1760027;80;21583;-83
2022/04/29 11:48:08;;;;;;;6.33;2.80;;;;;;;21.51;46.34;101430.72;1747165;79;21053;-83
2022/04/29 11:50:35;;;;;;;9.53;2.83;;;;;;;21.50;46.37;101428.52;1764936;79;22113;-83
2022/04/29 11:53:10;;;;;;;8.50;2.60;;;;;;;21.51;46.37;101427.39;1778002;79;21213;-83
2022/04/29 11:55:37;;;;;;;6.65;3.00;;;;;;;21.50;46.34;101419.38;1777415;80;21485;-83
2022/04/29 11:58:04;;;;;;;6.28;2.55;;;;;;;21.49;46.33;101419.95;1779382;80;21119;-83
2022/04/29 12:00:33;;;;;;;5.60;2.62;;;;;;;21.50;46.35;101423.53;1779367;79;21210;-83
2022/04/29 12:03:00;;;;;;;11.40;2.92;;;;;;;21.49;46.33;101411.64;1780009;80;21040;-83
2022/04/29 12:05:27;;;;;;;4.80;2.35;;;;;;;21.49;46.32;101421.33;1778738;79;22129;-83
2022/04/29 12:07:54;;;;;;;7.62;2.35;;;;;;;21.49;46.31;101417.17;1786256;78;21072;-83
2022/04/29 12:10:27;;;;;;;6.20;2.27;;;;;;;21.49;46.31;101425.48;1784777;78;21076;-83
2022/04/29 12:13:02;;;;;;;4.60;2.25;;;;;;;21.49;46.30;101426.04;1777122;78;21063;-83
2022/04/29 12:15:35;;;;;;;6.08;2.60;;;;;;;21.48;46.29;101422.45;1774958;79;21053;-83
2022/04/29 12:18:07;;;;;;;6.45;2.37;;;;;;;21.48;46.28;101414.70;1748769;80;21117;-83
2022/04/29 12:20:33;;;;;;;8.20;2.80;;;;;;;21.48;46.28;101419.68;1755008;79;21080;-84
2022/04/29 12:23:22;;;;;;;21.62;3.20;;;;;;;21.46;46.30;101419.19;1718973;81;21543;-84
2022/04/29 12:25:48;;;;;;;7.55;2.33;;;;;;;21.46;46.30;101417.80;1728271;81;21021;-83
2022/04/29 12:28:23;;;;;;;5.30;2.37;;;;;;;21.45;46.31;101417.54;1735971;80;21097;-83
2022/04/29 12:37:10;;;;;;;8.20;3.30;;;;;;;21.43;46.30;101408.70;1760214;80;26630;-83
2022/04/29 12:39:47;;;;;;;6.25;2.33;;;;;;;21.42;46.30;101402.94;1764900;80;21041;-82
2022/04/29 12:42:12;;;;;;;9.15;2.40;;;;;;;21.41;46.30;101398.52;1765961;79;21017;-82
2022/04/29 12:45:10;;;;;;;6.28;3.00;;;;;;;21.40;46.30;101399.64;1733097;82;21068;-82
2022/04/29 12:47:45;;;;;;;7.58;2.30;;;;;;;21.37;46.31;101395.56;1732911;82;20997;-83
2022/04/29 12:50:38;;;;;;;7.25;2.22;;;;;;;21.36;46.30;101403.59;1733608;82;21316;-82
2022/04/29 12:53:08;;;;;;;7.15;2.72;;;;;;;21.35;46.30;101398.36;1733482;82;21010;-82
2022/04/29 12:55:45;;;;;;;6.60;2.58;;;;;;;21.34;46.29;101395.36;1734001;82;21010;-83
2022/04/29 12:58:23;;;;;;;3.85;2.37;;;;;;;21.33;46.30;101407.55;1715821;82;21076;-83
2022/04/29 13:01:06;;;;;;;4.83;2.10;;;;;;;21.32;46.30;101405.91;1676501;85;20970;-82
2022/04/29 13:03:32;;;;;;;8.18;2.83;;;;;;;21.31;46.30;101407.85;1682977;84;21009;-83
2022/04/29 13:05:58;;;;;;;5.10;2.27;;;;;;;21.30;46.29;101408.17;1731054;82;21017;-83